Time,TemperatureF,DewpointF,PressureIn,WindDirection,WindDirectionDegrees,WindSpeedMPH,WindSpeedGustMPH,Humidity,HourlyPrecipIn,Conditions,Clouds,dailyrainin,SoftwareType,DateUTC
2013-06-14 00:00:00,73.6,71.1,29.69,NW,315,0.0,3.0,92,0.00,,---,0.00,VWS V14.01,2013-06-14 04:00:00,
2013-06-14 00:15:00,73.5,71.4,29.70,North,355,0.0,2.0,93,0.00,,---,0.00,VWS V14.01,2013-06-14 04:15:00,
2013-06-14 00:30:00,73.3,71.2,29.70,North,355,0.0,1.0,93,0.00,,---,0.00,VWS V14.01,2013-06-14 04:30:00,
2013-06-14 00:45:00,73.0,70.9,29.71,North,354,0.0,1.0,93,0.00,,---,0.00,VWS V14.01,2013-06-14 04:45:00,
2013-06-14 01:00:00,72.6,70.8,29.71,North,352,0.0,1.0,94,0.00,,---,0.00,VWS V14.01,2013-06-14 05:00:00,
2013-06-14 01:15:00,72.4,70.6,29.71,NNW,335,0.0,2.0,94,0.00,,---,0.00,VWS V14.01,2013-06-14 05:15:00,
2013-06-14 01:30:00,72.1,70.3,29.72,WSW,250,1.0,1.0,94,0.00,,---,0.00,VWS V14.01,2013-06-14 05:30:00,
2013-06-14 01:45:00,72.0,70.2,29.71,North,353,0.0,2.0,94,0.00,,---,0.00,VWS V14.01,2013-06-14 05:45:00,
2013-06-14 02:00:00,71.9,70.1,29.71,NNW,344,0.0,1.0,94,0.00,,---,0.00,VWS V14.01,2013-06-14 06:00:00,
2013-06-14 02:15:00,71.6,70.1,29.71,NNW,346,0.0,1.0,95,0.00,,---,0.00,VWS V14.01,2013-06-14 06:15:00,
2013-06-14 02:30:00,71.4,69.9,29.71,NNW,345,1.0,1.0,95,0.00,,---,0.00,VWS V14.01,2013-06-14 06:30:00,
2013-06-14 02:45:00,71.1,69.6,29.72,North,359,0.0,2.0,95,0.00,,---,0.00,VWS V14.01,2013-06-14 06:45:00,
2013-06-14 03:00:00,70.8,69.6,29.72,North,360,0.0,1.0,96,0.00,,---,0.00,VWS V14.01,2013-06-14 07:00:00,
2013-06-14 03:15:00,70.9,69.7,29.74,North,352,0.0,2.0,96,0.00,,---,0.00,VWS V14.01,2013-06-14 07:15:00,
2013-06-14 03:30:00,70.9,69.7,29.74,North,351,0.0,1.0,96,0.00,,---,0.00,VWS V14.01,2013-06-14 07:30:00,
2013-06-14 03:45:00,71.0,69.8,29.74,WSW,242,0.0,1.0,96,0.00,,---,0.00,VWS V14.01,2013-06-14 07:45:00,
2013-06-14 04:00:00,70.9,69.7,29.74,WSW,243,0.0,1.0,96,0.00,,---,0.00,VWS V14.01,2013-06-14 08:00:00,
2013-06-14 04:15:00,70.7,69.5,29.74,WSW,243,0.0,1.0,96,0.00,,---,0.00,VWS V14.01,2013-06-14 08:15:00,
2013-06-14 04:30:00,70.5,69.3,29.75,WSW,243,0.0,1.0,96,0.00,,---,0.00,VWS V14.01,2013-06-14 08:30:00,
2013-06-14 04:45:00,70.3,69.4,29.74,NW,318,0.0,1.0,97,0.00,,---,0.00,VWS V14.01,2013-06-14 08:45:00,
2013-06-14 05:00:00,70.1,69.2,29.75,NW,318,0.0,1.0,97,0.00,,---,0.00,VWS V14.01,2013-06-14 09:00:00,
2013-06-14 05:15:00,69.8,68.9,29.76,NW,318,0.0,0.0,97,0.00,,---,0.00,VWS V14.01,2013-06-14 09:15:00,
2013-06-14 05:30:00,69.6,68.7,29.77,NW,318,0.0,1.0,97,0.00,,---,0.00,VWS V14.01,2013-06-14 09:30:00,
2013-06-14 05:45:00,69.6,68.7,29.76,NW,318,0.0,1.0,97,0.00,,---,0.00,VWS V14.01,2013-06-14 09:45:00,
2013-06-14 06:00:00,69.4,68.5,29.76,NW,318,0.0,1.0,97,0.00,,---,0.00,VWS V14.01,2013-06-14 10:00:00,
2013-06-14 06:15:00,68.8,67.9,29.77,West,273,0.0,1.0,97,0.00,,---,0.00,VWS V14.01,2013-06-14 10:15:00,
2013-06-14 06:30:00,68.2,67.3,29.77,West,273,0.0,1.0,97,0.00,,---,0.00,VWS V14.01,2013-06-14 10:30:00,
2013-06-14 06:45:00,67.6,66.4,29.77,West,273,0.0,1.0,96,0.00,,---,0.00,VWS V14.01,2013-06-14 10:45:00,
2013-06-14 07:00:00,67.3,66.1,29.78,West,273,0.0,1.0,96,0.00,,---,0.00,VWS V14.01,2013-06-14 11:00:00,
2013-06-14 07:15:00,66.9,65.7,29.78,West,273,0.0,1.0,96,0.00,,---,0.00,VWS V14.01,2013-06-14 11:15:00,
2013-06-14 07:30:00,66.7,65.2,29.79,West,273,0.0,1.0,95,0.00,,---,0.00,VWS V14.01,2013-06-14 11:30:00,
2013-06-14 07:45:00,66.8,65.0,29.79,NW,315,0.0,1.0,94,0.00,,---,0.00,VWS V14.01,2013-06-14 11:45:00,
2013-06-14 08:00:00,67.0,64.9,29.80,NW,314,0.0,0.0,93,0.00,,---,0.00,VWS V14.01,2013-06-14 12:00:00,
2013-06-14 08:15:00,67.1,64.4,29.81,NW,313,0.0,0.0,91,0.00,,---,0.00,VWS V14.01,2013-06-14 12:15:00,
2013-06-14 08:30:00,67.7,64.3,29.82,South,184,0.0,1.0,89,0.00,,---,0.00,VWS V14.01,2013-06-14 12:30:00,
2013-06-14 08:45:00,68.5,64.5,29.83,South,185,0.0,0.0,87,0.00,,---,0.00,VWS V14.01,2013-06-14 12:45:00,
2013-06-14 09:00:00,69.6,64.2,29.84,South,187,0.0,2.0,83,0.00,,---,0.00,VWS V14.01,2013-06-14 13:00:00,
2013-06-14 09:15:00,70.9,64.1,29.84,NW,316,0.0,2.0,79,0.00,,---,0.00,VWS V14.01,2013-06-14 13:15:00,
2013-06-14 09:30:00,71.8,63.1,29.85,NW,322,0.0,3.0,74,0.00,,---,0.00,VWS V14.01,2013-06-14 13:30:00,
2013-06-14 09:45:00,72.5,64.1,29.85,East,92,0.0,2.0,75,0.00,,---,0.00,VWS V14.01,2013-06-14 13:45:00,
2013-06-14 10:00:00,73.7,63.3,29.85,North,349,0.0,3.0,70,0.00,,---,0.00,VWS V14.01,2013-06-14 14:00:00,
2013-06-14 10:15:00,74.2,63.4,29.85,NE,39,0.0,2.0,69,0.00,,---,0.00,VWS V14.01,2013-06-14 14:15:00,
2013-06-14 10:30:00,75.2,63.5,29.85,South,173,1.0,3.0,67,0.00,,---,0.00,VWS V14.01,2013-06-14 14:30:00,
2013-06-14 10:45:00,76.2,63.1,29.84,WSW,243,0.0,5.0,64,0.00,,---,0.00,VWS V14.01,2013-06-14 14:45:00,
2013-06-14 11:00:00,77.0,62.1,29.84,NNW,332,0.0,3.0,60,0.00,,---,0.00,VWS V14.01,2013-06-14 15:00:00,
2013-06-14 11:15:00,78.1,63.6,29.84,North,354,0.0,3.0,61,0.00,,---,0.00,VWS V14.01,2013-06-14 15:15:00,
2013-06-14 11:30:00,79.1,63.1,29.85,NNW,333,0.0,4.0,58,0.00,,---,0.00,VWS V14.01,2013-06-14 15:30:00,
2013-06-14 11:45:00,80.6,62.4,29.85,WNW,297,1.0,4.0,54,0.00,,---,0.00,VWS V14.01,2013-06-14 15:45:00,
2013-06-14 12:00:00,81.7,61.8,29.85,South,183,1.0,3.0,51,0.00,,---,0.00,VWS V14.01,2013-06-14 16:00:00,
2013-06-14 12:15:00,82.4,63.0,29.85,East,79,2.0,3.0,52,0.00,,---,0.00,VWS V14.01,2013-06-14 16:15:00,
2013-06-14 12:30:00,83.0,62.5,29.85,NNW,346,1.0,4.0,50,0.00,,---,0.00,VWS V14.01,2013-06-14 16:30:00,
2013-06-14 12:45:00,83.8,63.2,29.84,NNW,340,0.0,4.0,50,0.00,,---,0.00,VWS V14.01,2013-06-14 16:45:00,
2013-06-14 13:00:00,84.4,60.8,29.84,SSW,210,0.0,4.0,45,0.00,,---,0.00,VWS V14.01,2013-06-14 17:00:00,
2013-06-14 13:15:00,84.6,63.9,29.84,ENE,58,1.0,5.0,50,0.00,,---,0.00,VWS V14.01,2013-06-14 17:15:00,
2013-06-14 13:30:00,84.7,62.3,29.83,ESE,108,0.0,3.0,47,0.00,,---,0.00,VWS V14.01,2013-06-14 17:30:00,
2013-06-14 13:45:00,85.8,62.0,29.84,NW,318,2.0,3.0,45,0.00,,---,0.00,VWS V14.01,2013-06-14 17:45:00,
2013-06-14 14:00:00,86.5,62.0,29.83,NNW,333,0.0,5.0,44,0.00,,---,0.00,VWS V14.01,2013-06-14 18:00:00,
2013-06-14 14:15:00,86.7,60.9,29.83,NW,322,4.0,5.0,42,0.00,,---,0.00,VWS V14.01,2013-06-14 18:15:00,
2013-06-14 14:30:00,86.0,60.3,29.83,NNE,23,1.0,4.0,42,0.00,,---,0.00,VWS V14.01,2013-06-14 18:30:00,
2013-06-14 14:45:00,87.0,63.1,29.83,ENE,67,2.0,4.0,45,0.00,,---,0.00,VWS V14.01,2013-06-14 18:45:00,
2013-06-14 15:00:00,87.1,60.6,29.83,NNE,23,2.0,5.0,41,0.00,,---,0.00,VWS V14.01,2013-06-14 19:00:00,
2013-06-14 15:15:00,87.5,62.3,29.83,NE,41,0.0,4.0,43,0.00,,---,0.00,VWS V14.01,2013-06-14 19:15:00,
2013-06-14 15:30:00,87.3,59.3,29.83,WNW,288,3.0,6.0,39,0.00,,---,0.00,VWS V14.01,2013-06-14 19:30:00,
2013-06-14 15:45:00,86.6,60.1,29.83,ENE,64,1.0,6.0,41,0.00,,---,0.00,VWS V14.01,2013-06-14 19:45:00,
2013-06-14 16:00:00,87.1,61.9,29.83,ENE,70,0.0,4.0,43,0.00,,---,0.00,VWS V14.01,2013-06-14 20:00:00,
2013-06-14 16:15:00,88.2,64.2,29.83,NNE,22,1.0,3.0,45,0.00,,---,0.00,VWS V14.01,2013-06-14 20:15:00,
2013-06-14 16:30:00,87.2,59.2,29.83,NNE,13,2.0,5.0,39,0.00,,---,0.00,VWS V14.01,2013-06-14 20:30:00,
2013-06-14 16:45:00,87.4,60.1,29.83,WNW,288,2.0,5.0,40,0.00,,---,0.00,VWS V14.01,2013-06-14 20:45:00,
2013-06-14 17:00:00,88.0,63.4,29.83,WSW,249,3.0,4.0,44,0.00,,---,0.00,VWS V14.01,2013-06-14 21:00:00,
2013-06-14 17:15:00,87.7,61.1,29.83,North,9,2.0,3.0,41,0.00,,---,0.00,VWS V14.01,2013-06-14 21:15:00,
2013-06-14 17:30:00,86.7,60.9,29.83,NNE,19,1.0,3.0,42,0.00,,---,0.00,VWS V14.01,2013-06-14 21:30:00,
2013-06-14 17:45:00,86.1,63.5,29.83,ENE,69,1.0,3.0,47,0.00,,---,0.00,VWS V14.01,2013-06-14 21:45:00,
2013-06-14 18:00:00,85.0,60.7,29.83,ENE,73,1.0,2.0,44,0.00,,---,0.00,VWS V14.01,2013-06-14 22:00:00,
2013-06-14 18:15:00,84.1,61.7,29.83,East,79,0.0,2.0,47,0.00,,---,0.00,VWS V14.01,2013-06-14 22:15:00,
2013-06-14 18:30:00,83.5,62.3,29.83,East,90,1.0,4.0,49,0.00,,---,0.00,VWS V14.01,2013-06-14 22:30:00,
2013-06-14 18:45:00,83.3,61.6,29.84,South,177,0.0,1.0,48,0.00,,---,0.00,VWS V14.01,2013-06-14 22:45:00,
2013-06-14 19:00:00,83.1,62.5,29.85,WSW,239,0.0,2.0,50,0.00,,---,0.00,VWS V14.01,2013-06-14 23:00:00,
2013-06-14 19:15:00,81.9,64.7,29.85,WSW,238,0.0,1.0,56,0.00,,---,0.00,VWS V14.01,2013-06-14 23:15:00,
2013-06-14 19:30:00,80.6,61.9,29.86,SW,215,0.0,1.0,53,0.00,,---,0.00,VWS V14.01,2013-06-14 23:30:00,
2013-06-14 19:45:00,80.1,63.5,29.86,SW,215,0.0,0.0,57,0.00,,---,0.00,VWS V14.01,2013-06-14 23:45:00,
2013-06-14 20:00:00,79.1,63.6,29.87,SW,215,0.0,0.0,59,0.00,,---,0.00,VWS V14.01,2013-06-15 00:00:00,
2013-06-14 20:15:00,78.0,64.8,29.88,SW,215,0.0,0.0,64,0.00,,---,0.00,VWS V14.01,2013-06-15 00:15:00,
2013-06-14 20:31:00,76.6,63.5,29.88,SW,215,0.0,0.0,64,0.00,,---,0.00,VWS V14.01,2013-06-15 00:31:00,
2013-06-14 20:45:00,75.3,63.6,29.88,SW,215,0.0,0.0,67,0.00,,---,0.00,VWS V14.01,2013-06-15 00:45:00,
2013-06-14 21:00:00,74.4,64.4,29.88,SW,215,0.0,0.0,71,0.00,,---,0.00,VWS V14.01,2013-06-15 01:00:00,
2013-06-14 21:15:00,73.5,63.1,29.89,SW,214,0.0,0.0,70,0.00,,---,0.00,VWS V14.01,2013-06-15 01:15:00,
2013-06-14 21:30:00,73.0,63.0,29.89,SW,215,0.0,0.0,71,0.00,,---,0.00,VWS V14.01,2013-06-15 01:30:00,
2013-06-14 21:45:00,72.4,63.3,29.89,SW,215,0.0,0.0,73,0.00,,---,0.00,VWS V14.01,2013-06-15 01:45:00,
2013-06-14 22:00:00,72.0,63.7,29.90,SW,215,0.0,0.0,75,0.00,,---,0.00,VWS V14.01,2013-06-15 02:00:00,
2013-06-14 22:15:00,71.1,61.6,29.91,SW,215,0.0,0.0,72,0.00,,---,0.00,VWS V14.01,2013-06-15 02:15:00,
2013-06-14 22:30:00,70.7,63.5,29.92,SW,215,0.0,0.0,78,0.00,,---,0.00,VWS V14.01,2013-06-15 02:30:00,
2013-06-14 22:45:00,70.0,61.7,29.93,SW,215,0.0,0.0,75,0.00,,---,0.00,VWS V14.01,2013-06-15 02:45:00,
2013-06-14 23:00:00,69.4,61.1,29.93,SW,215,0.0,0.0,75,0.00,,---,0.00,VWS V14.01,2013-06-15 03:00:00,
2013-06-14 23:15:00,68.9,61.8,29.94,SW,215,0.0,0.0,78,0.00,,---,0.00,VWS V14.01,2013-06-15 03:15:00,
2013-06-14 23:30:00,68.8,62.7,29.94,SW,215,0.0,0.0,81,0.00,,---,0.00,VWS V14.01,2013-06-15 03:30:00,
2013-06-14 23:45:00,68.2,62.2,29.95,SW,215,0.0,0.0,81,0.00,,---,0.00,VWS V14.01,2013-06-15 03:45:00,